Time;durP1;ratioP1;P1;durP2;ratioP2;P2;SDS_P1;SDS_P2;PMS_P1;PMS_P2;Temp;Humidity;BMP_temperature;BMP_pressure;BME280_temperature;BME280_humidity;BME280_pressure;Samples;Min_cycle;Max_cycle;Signal;HPM_P1;HPM_P2
2023/08/14 00:01:48;;;;;;;7.63;4.10;;;15.20;99.90;;;;;;5041436;28;20092;-67
2023/08/14 00:04:13;;;;;;;7.43;4.43;;;15.20;99.90;;;;;;5064889;28;20127;-67
2023/08/14 00:06:39;;;;;;;8.02;4.63;;;15.20;99.90;;;;;;5050687;28;20442;-67
2023/08/14 00:09:05;;;;;;;8.45;4.40;;;15.30;99.90;;;;;;5026894;28;20531;-66
2023/08/14 00:11:30;;;;;;;5.82;3.75;;;15.20;99.90;;;;;;5044504;28;20376;-66
2023/08/14 00:13:56;;;;;;;6.97;3.92;;;15.20;99.90;;;;;;5063732;28;20131;-67
2023/08/14 00:16:23;;;;;;;6.72;3.47;;;15.10;99.90;;;;;;5049329;28;20047;-66
2023/08/14 00:18:49;;;;;;;6.22;3.90;;;15.20;99.90;;;;;;5043498;28;20049;-66
2023/08/14 00:21:14;;;;;;;7.43;4.30;;;15.10;99.90;;;;;;5044989;28;20561;-66
2023/08/14 00:23:40;;;;;;;8.82;4.13;;;15.10;99.90;;;;;;5044552;28;20510;-67
2023/08/14 00:26:05;;;;;;;14.32;3.95;;;15.10;99.90;;;;;;5046700;28;20048;-68
2023/08/14 00:28:31;;;;;;;10.55;3.67;;;15.10;99.90;;;;;;5046845;28;20044;-66
2023/08/14 00:30:57;;;;;;;13.68;3.50;;;15.00;99.90;;;;;;5048616;28;20033;-67
2023/08/14 00:33:23;;;;;;;6.20;4.15;;;15.00;99.90;;;;;;5023574;28;20057;-66
2023/08/14 00:35:48;;;;;;;6.45;4.45;;;15.00;99.90;;;;;;5024593;28;20069;-66
2023/08/14 00:38:14;;;;;;;7.43;5.38;;;15.00;99.90;;;;;;5047829;28;20036;-66
2023/08/14 00:40:40;;;;;;;7.90;4.88;;;15.00;99.90;;;;;;5064784;28;20106;-67
2023/08/14 00:43:05;;;;;;;8.27;4.88;;;15.00;99.90;;;;;;5063429;28;20068;-66
2023/08/14 00:45:31;;;;;;;9.27;5.65;;;15.00;99.90;;;;;;5036800;28;20044;-66
2023/08/14 00:47:57;;;;;;;7.63;5.15;;;15.00;99.90;;;;;;5045380;28;20041;-67
2023/08/14 00:50:23;;;;;;;9.75;4.68;;;15.00;99.90;;;;;;5047083;28;20135;-67
2023/08/14 00:52:54;;;;;;;8.43;4.85;;;15.00;99.90;;;;;;5047055;28;20118;-67
2023/08/14 00:55:26;;;;;;;6.97;4.88;;;15.00;99.90;;;;;;5048626;28;20430;-66
2023/08/14 00:57:53;;;;;;;10.63;4.72;;;15.00;99.90;;;;;;5048384;28;20516;-67
2023/08/14 01:00:19;;;;;;;7.07;4.57;;;15.00;99.90;;;;;;5048586;28;20506;-67
2023/08/14 01:02:47;;;;;;;8.85;4.70;;;15.00;99.90;;;;;;5046922;28;20061;-67
2023/08/14 01:05:12;;;;;;;8.38;4.85;;;15.00;99.90;;;;;;5030532;28;20477;-67
2023/08/14 01:07:38;;;;;;;8.88;4.80;;;14.90;99.90;;;;;;5048502;28;20128;-66
2023/08/14 01:10:09;;;;;;;9.38;4.78;;;14.90;99.90;;;;;;5066645;28;20154;-67
2023/08/14 01:12:56;;;;;;;7.68;4.65;;;14.90;99.90;;;;;;5066779;28;20116;-68
2023/08/14 01:15:36;;;;;;;6.35;3.72;;;14.90;99.90;;;;;;5059682;28;20037;-68
2023/08/14 01:18:03;;;;;;;6.30;3.67;;;14.80;99.90;;;;;;5049983;28;20032;-67
2023/08/14 01:20:31;;;;;;;7.97;4.60;;;14.80;99.90;;;;;;5049887;28;20083;-68
2023/08/14 01:23:33;;;;;;;7.47;4.32;;;14.80;99.90;;;;;;5046716;28;20071;-67
2023/08/14 01:26:00;;;;;;;8.98;4.28;;;14.80;99.90;;;;;;5046394;28;20095;-67
2023/08/14 01:28:27;;;;;;;6.10;4.03;;;14.70;99.90;;;;;;5029162;28;20450;-67
2023/08/14 01:30:54;;;;;;;7.07;3.75;;;14.70;99.90;;;;;;5056914;28;20037;-67
2023/08/14 01:33:19;;;;;;;8.32;3.60;;;14.70;99.90;;;;;;5026854;28;20268;-68
2023/08/14 01:35:52;;;;;;;7.03;4.03;;;14.60;99.90;;;;;;5054707;28;20102;-69
2023/08/14 01:38:33;;;;;;;6.72;3.90;;;14.60;99.90;;;;;;5049707;28;20044;-67
2023/08/14 01:41:13;;;;;;;6.70;3.63;;;14.60;99.90;;;;;;5067474;28;20048;-67
2023/08/14 01:43:46;;;;;;;8.25;4.28;;;14.60;99.90;;;;;;5065043;28;20094;-67
2023/08/14 01:46:14;;;;;;;6.75;3.40;;;14.60;99.90;;;;;;5060968;28;20033;-68
2023/08/14 01:48:40;;;;;;;7.20;3.90;;;14.50;99.90;;;;;;5067669;28;20335;-66
2023/08/14 01:51:07;;;;;;;5.97;2.47;;;14.50;99.90;;;;;;5052739;28;20144;-67
2023/08/14 01:53:35;;;;;;;4.60;2.50;;;14.50;99.90;;;;;;5046376;28;20047;-66
2023/08/14 01:56:01;;;;;;;4.93;2.45;;;14.40;99.90;;;;;;5028981;28;20120;-67
2023/08/14 01:58:27;;;;;;;6.78;2.78;;;14.40;99.90;;;;;;5050623;28;20500;-68
2023/08/14 02:00:52;;;;;;;5.65;2.75;;;14.30;99.90;;;;;;5044917;28;20036;-67
2023/08/14 02:03:18;;;;;;;7.35;3.65;;;14.30;99.90;;;;;;5049247;28;20056;-66
2023/08/14 02:05:44;;;;;;;7.03;3.25;;;14.30;99.90;;;;;;5064100;28;20055;-67
2023/08/14 02:08:09;;;;;;;5.03;2.95;;;14.30;99.90;;;;;;5067107;28;20072;-68
2023/08/14 02:10:35;;;;;;;6.93;3.55;;;14.30;99.90;;;;;;5067136;28;20047;-68
2023/08/14 02:13:00;;;;;;;6.10;3.60;;;14.30;99.90;;;;;;5048384;28;20046;-68
2023/08/14 02:15:26;;;;;;;7.28;4.50;;;14.30;99.90;;;;;;5059301;28;20597;-67
2023/08/14 02:17:51;;;;;;;8.13;4.15;;;14.30;99.90;;;;;;5065726;28;20083;-67
2023/08/14 02:20:17;;;;;;;6.22;4.00;;;14.30;99.90;;;;;;5065679;28;20052;-68
2023/08/14 02:22:43;;;;;;;7.40;3.67;;;14.30;99.90;;;;;;5053298;28;20080;-67
2023/08/14 02:25:08;;;;;;;8.63;4.80;;;14.30;99.90;;;;;;5028852;28;20044;-69
2023/08/14 02:27:34;;;;;;;7.45;4.43;;;14.20;99.90;;;;;;5045304;28;20576;-68
2023/08/14 02:30:00;;;;;;;6.63;3.60;;;14.20;99.90;;;;;;5048327;28;20049;-68
2023/08/14 02:32:25;;;;;;;8.70;4.38;;;14.20;99.90;;;;;;5032109;28;20474;-69
2023/08/14 02:34:55;;;;;;;18.17;5.30;;;14.20;99.90;;;;;;5045294;28;20063;-70
2023/08/14 02:37:22;;;;;;;21.42;5.28;;;14.10;99.90;;;;;;5054284;28;20141;-69
2023/08/14 02:39:48;;;;;;;6.35;3.97;;;14.10;99.90;;;;;;5065403;28;20040;-70
2023/08/14 02:42:18;;;;;;;8.20;4.53;;;14.00;99.90;;;;;;5065172;28;20088;-67
2023/08/14 02:44:44;;;;;;;7.60;5.00;;;14.00;99.90;;;;;;5063997;28;20136;-67
2023/08/14 02:47:10;;;;;;;8.30;4.93;;;14.00;99.90;;;;;;5062906;28;20558;-67
2023/08/14 02:49:35;;;;;;;9.13;5.30;;;14.10;99.90;;;;;;5048703;28;20105;-67
2023/08/14 02:52:01;;;;;;;9.18;6.18;;;14.10;99.90;;;;;;5065386;28;20045;-66
2023/08/14 02:54:27;;;;;;;12.65;7.60;;;14.10;99.90;;;;;;5045522;28;20131;-67
2023/08/14 02:56:52;;;;;;;12.73;8.10;;;14.10;99.90;;;;;;5052052;28;20035;-66
2023/08/14 02:59:18;;;;;;;13.07;8.27;;;14.20;99.90;;;;;;5099137;28;20060;-68
2023/08/14 03:01:44;;;;;;;12.95;8.85;;;14.20;99.90;;;;;;5061006;28;20672;-68
2023/08/14 03:04:10;;;;;;;12.90;8.50;;;14.20;99.90;;;;;;5047817;28;20540;-68
2023/08/14 03:06:35;;;;;;;14.18;9.40;;;14.20;99.90;;;;;;5044104;28;20488;-68
2023/08/14 03:09:01;;;;;;;13.48;8.95;;;14.20;99.90;;;;;;5044665;28;20095;-69
2023/08/14 03:11:27;;;;;;;12.75;8.18;;;14.20;99.90;;;;;;5045066;28;20037;-68
2023/08/14 03:13:53;;;;;;;10.95;8.15;;;14.20;99.90;;;;;;5085794;28;20025;-66
2023/08/14 03:16:19;;;;;;;15.18;8.57;;;14.20;99.90;;;;;;5061186;28;20047;-67
2023/08/14 03:18:44;;;;;;;12.70;8.32;;;14.20;99.90;;;;;;5064682;28;20041;-66
2023/08/14 03:21:10;;;;;;;12.15;8.30;;;14.20;99.90;;;;;;5064087;28;20509;-69
2023/08/14 03:23:36;;;;;;;15.57;9.77;;;14.20;99.90;;;;;;5064678;28;20128;-68
2023/08/14 03:26:02;;;;;;;14.13;9.93;;;14.20;99.90;;;;;;5046431;28;20047;-67
2023/08/14 03:28:28;;;;;;;14.13;9.05;;;14.20;99.90;;;;;;5065812;28;20123;-67
2023/08/14 03:30:54;;;;;;;14.57;8.13;;;14.20;99.90;;;;;;5039373;28;20124;-67
2023/08/14 03:33:19;;;;;;;16.50;8.93;;;14.30;99.90;;;;;;5046192;28;20140;-68
2023/08/14 03:35:45;;;;;;;14.98;9.23;;;14.30;99.90;;;;;;5046148;28;20283;-66
2023/08/14 03:38:11;;;;;;;15.38;10.10;;;14.30;99.90;;;;;;5027939;28;20084;-67
2023/08/14 03:40:37;;;;;;;12.00;8.70;;;14.20;99.90;;;;;;5062496;28;20036;-66
2023/08/14 03:43:02;;;;;;;14.75;8.98;;;14.30;99.90;;;;;;5047780;28;20416;-66
2023/08/14 03:45:28;;;;;;;10.68;7.70;;;14.20;99.90;;;;;;5040131;28;20044;-65
2023/08/14 03:47:54;;;;;;;10.25;6.70;;;14.20;99.90;;;;;;5046936;28;20341;-66
2023/08/14 03:50:19;;;;;;;11.27;7.25;;;14.20;99.90;;;;;;5044618;28;20192;-65
2023/08/14 03:52:45;;;;;;;13.65;7.18;;;14.20;99.90;;;;;;5045536;28;20029;-65
2023/08/14 03:55:10;;;;;;;10.88;7.22;;;14.20;99.90;;;;;;5048808;28;20058;-66
2023/08/14 03:57:36;;;;;;;14.95;9.10;;;14.20;99.90;;;;;;5064843;28;20040;-65
2023/08/14 04:00:02;;;;;;;12.55;8.13;;;14.20;99.90;;;;;;5062010;28;20056;-67
2023/08/14 04:02:28;;;;;;;17.92;10.07;;;14.20;99.90;;;;;;5044369;28;20065;-65
2023/08/14 04:04:54;;;;;;;12.80;8.80;;;14.20;99.90;;;;;;5044897;28;20045;-66
2023/08/14 04:07:19;;;;;;;11.45;7.78;;;14.20;99.90;;;;;;5045399;28;20102;-65
2023/08/14 04:09:45;;;;;;;10.50;6.00;;;14.10;99.90;;;;;;5045896;28;20040;-65
2023/08/14 04:12:10;;;;;;;7.18;5.18;;;14.10;99.90;;;;;;5067454;28;20051;-65
2023/08/14 04:14:36;;;;;;;10.30;6.10;;;14.10;99.90;;;;;;5063162;28;20044;-65
2023/08/14 04:17:01;;;;;;;8.38;5.40;;;14.10;99.90;;;;;;5061253;28;20029;-65
2023/08/14 04:19:27;;;;;;;6.65;4.78;;;14.00;99.90;;;;;;5048088;28;20491;-66
2023/08/14 04:21:53;;;;;;;7.55;4.60;;;14.00;99.90;;;;;;5064164;28;20040;-65
2023/08/14 04:24:18;;;;;;;8.35;4.90;;;14.00;99.90;;;;;;5065977;28;20507;-65
2023/08/14 04:26:44;;;;;;;9.98;4.28;;;14.00;99.90;;;;;;5064197;28;20032;-67
2023/08/14 04:29:10;;;;;;;7.95;3.97;;;13.90;99.90;;;;;;5058919;28;20064;-67
2023/08/14 04:31:36;;;;;;;7.13;4.20;;;13.90;99.90;;;;;;5030336;28;20275;-66
2023/08/14 04:34:03;;;;;;;18.70;5.20;;;13.80;99.90;;;;;;5045762;28;20108;-66
2023/08/14 04:36:30;;;;;;;12.38;5.38;;;13.80;99.90;;;;;;5044328;28;20041;-66
2023/08/14 04:38:56;;;;;;;12.85;5.40;;;13.80;99.90;;;;;;5044194;28;20060;-68
2023/08/14 04:41:21;;;;;;;10.13;5.47;;;13.90;99.90;;;;;;5043757;28;20041;-67
2023/08/14 04:43:47;;;;;;;9.02;5.50;;;14.00;99.90;;;;;;5047654;28;20040;-67
2023/08/14 04:46:28;;;;;;;8.57;5.65;;;14.10;99.90;;;;;;5061398;28;20083;-67
2023/08/14 04:48:54;;;;;;;9.02;6.10;;;14.30;99.90;;;;;;5064642;28;20048;-68
2023/08/14 04:51:19;;;;;;;10.98;7.07;;;14.40;99.90;;;;;;5047849;28;20507;-65
2023/08/14 04:53:45;;;;;;;11.85;6.55;;;14.50;99.90;;;;;;5055931;28;20480;-66
2023/08/14 04:56:10;;;;;;;11.38;7.30;;;14.50;99.90;;;;;;5045797;28;20033;-65
2023/08/14 04:58:36;;;;;;;9.98;7.15;;;14.70;99.90;;;;;;5044932;28;20044;-67
2023/08/14 05:01:02;;;;;;;11.50;8.10;;;14.80;99.90;;;;;;5046008;28;20314;-66
2023/08/14 05:03:27;;;;;;;12.93;8.80;;;14.90;99.90;;;;;;5045198;28;20131;-66
2023/08/14 05:05:53;;;;;;;12.57;8.10;;;15.00;99.90;;;;;;5028613;28;20146;-64
2023/08/14 05:08:19;;;;;;;12.75;8.73;;;15.10;99.90;;;;;;5045187;28;20128;-65
2023/08/14 05:10:52;;;;;;;12.10;8.90;;;15.20;99.90;;;;;;5060907;28;20043;-66
2023/08/14 05:13:18;;;;;;;13.13;8.07;;;15.30;99.90;;;;;;5047377;28;20055;-66
2023/08/14 05:15:47;;;;;;;13.07;8.60;;;15.30;99.90;;;;;;5041601;28;20033;-66
2023/08/14 05:18:14;;;;;;;15.00;9.20;;;15.30;99.90;;;;;;5065204;28;20455;-66
2023/08/14 05:20:43;;;;;;;14.30;9.60;;;15.40;99.90;;;;;;5063160;28;20474;-67
2023/08/14 05:23:09;;;;;;;12.80;8.05;;;15.40;99.90;;;;;;5047767;28;20053;-66
2023/08/14 05:25:34;;;;;;;15.50;9.25;;;15.50;99.90;;;;;;5064745;28;20051;-66
2023/08/14 05:28:00;;;;;;;15.35;9.38;;;15.50;99.90;;;;;;5053915;28;20037;-66
2023/08/14 05:30:26;;;;;;;16.42;10.05;;;15.40;99.90;;;;;;5045648;28;20045;-67
2023/08/14 05:32:51;;;;;;;15.20;9.70;;;15.50;99.90;;;;;;5026890;28;20034;-65
2023/08/14 05:35:22;;;;;;;13.80;9.63;;;15.50;99.90;;;;;;5027162;28;20481;-66
2023/08/14 05:37:48;;;;;;;16.65;9.88;;;15.80;99.90;;;;;;5060695;28;20562;-64
2023/08/14 05:40:14;;;;;;;16.05;9.10;;;16.20;99.90;;;;;;5047786;28;20362;-65
2023/08/14 05:42:40;;;;;;;15.77;9.00;;;16.90;99.90;;;;;;5047875;28;20051;-65
2023/08/14 05:45:06;;;;;;;16.25;9.05;;;17.10;99.90;;;;;;5048848;28;20443;-66
2023/08/14 05:47:31;;;;;;;12.10;8.32;;;17.10;99.90;;;;;;5067589;28;20040;-66
2023/08/14 05:49:57;;;;;;;11.70;8.15;;;17.00;99.90;;;;;;5101320;28;20094;-65
2023/08/14 05:52:22;;;;;;;14.35;9.27;;;17.10;99.90;;;;;;5068216;28;20159;-65
2023/08/14 05:54:48;;;;;;;13.18;8.02;;;17.20;99.90;;;;;;5058096;28;20047;-66
2023/08/14 05:57:13;;;;;;;17.02;9.27;;;17.10;99.90;;;;;;5049588;28;20822;-66
2023/08/14 05:59:39;;;;;;;16.15;8.98;;;17.10;99.90;;;;;;5030699;28;20485;-66
2023/08/14 06:02:05;;;;;;;17.15;8.73;;;17.10;99.90;;;;;;5046641;28;20064;-66
2023/08/14 06:04:33;;;;;;;15.95;9.45;;;17.10;99.90;;;;;;5050227;28;20055;-66
2023/08/14 06:06:58;;;;;;;15.40;8.45;;;17.10;99.90;;;;;;5067861;28;20128;-66
2023/08/14 06:09:25;;;;;;;14.95;9.43;;;17.10;99.90;;;;;;5066288;28;20296;-65
2023/08/14 06:11:50;;;;;;;15.55;8.80;;;17.10;99.90;;;;;;5067634;28;20051;-66
2023/08/14 06:14:16;;;;;;;14.48;9.52;;;17.10;99.90;;;;;;5049228;28;20044;-66
2023/08/14 06:16:41;;;;;;;14.73;9.43;;;17.10;99.90;;;;;;5044579;28;20044;-66
2023/08/14 06:19:07;;;;;;;15.35;9.85;;;17.10;99.90;;;;;;5065733;28;20135;-66
2023/08/14 06:21:33;;;;;;;17.85;9.60;;;17.10;99.90;;;;;;5065663;28;20048;-67
2023/08/14 06:23:58;;;;;;;15.18;8.90;;;17.20;99.90;;;;;;5065705;28;20396;-66
2023/08/14 06:26:24;;;;;;;15.98;9.48;;;17.20;99.90;;;;;;5048271;28;20103;-67
2023/08/14 06:28:49;;;;;;;16.63;8.82;;;17.20;99.90;;;;;;5028774;28;20612;-69
2023/08/14 06:31:15;;;;;;;17.58;9.07;;;17.20;99.90;;;;;;5044238;28;20091;-67
2023/08/14 06:33:41;;;;;;;18.92;9.90;;;17.20;99.90;;;;;;5058971;28;20041;-67
2023/08/14 06:36:07;;;;;;;13.48;9.07;;;17.20;99.90;;;;;;5026603;28;20575;-68
2023/08/14 06:38:33;;;;;;;14.88;9.45;;;17.30;99.90;;;;;;5043765;28;20087;-68
2023/08/14 06:40:59;;;;;;;19.67;9.52;;;17.30;99.90;;;;;;5065112;28;20028;-67
2023/08/14 06:43:25;;;;;;;13.52;9.15;;;17.30;99.90;;;;;;5048404;28;20560;-69
2023/08/14 06:45:50;;;;;;;16.75;9.23;;;17.30;99.90;;;;;;5044837;28;20539;-67
2023/08/14 06:48:16;;;;;;;15.25;8.10;;;17.40;99.90;;;;;;5028524;28;20488;-67
2023/08/14 06:50:41;;;;;;;13.45;8.73;;;17.40;99.90;;;;;;5045001;28;20037;-67
2023/08/14 06:53:07;;;;;;;15.77;8.38;;;17.40;99.90;;;;;;5078440;28;20037;-68
2023/08/14 06:55:32;;;;;;;17.30;7.90;;;17.40;99.90;;;;;;5064092;28;20043;-67
2023/08/14 06:57:58;;;;;;;16.48;8.68;;;17.40;99.90;;;;;;5065060;28;20075;-67
2023/08/14 07:00:23;;;;;;;16.35;8.35;;;17.50;99.90;;;;;;5043407;28;20045;-66
2023/08/14 07:02:49;;;;;;;16.40;8.73;;;17.40;99.90;;;;;;5066173;28;20060;-66
2023/08/14 07:05:15;;;;;;;14.43;7.90;;;17.50;99.90;;;;;;5055537;28;20056;-67
2023/08/14 07:07:41;;;;;;;12.02;7.50;;;17.50;99.90;;;;;;5044541;28;20041;-66
2023/08/14 07:10:07;;;;;;;13.38;8.18;;;17.50;99.90;;;;;;5044632;28;20052;-66
2023/08/14 07:12:32;;;;;;;14.00;7.85;;;17.50;99.90;;;;;;5062676;28;20332;-66
2023/08/14 07:15:00;;;;;;;15.85;7.80;;;17.50;99.90;;;;;;5060648;28;20454;-67
2023/08/14 07:17:26;;;;;;;14.90;7.90;;;17.60;99.90;;;;;;5046223;28;20478;-66
2023/08/14 07:19:52;;;;;;;16.55;8.00;;;17.60;99.90;;;;;;5060455;28;20080;-67
2023/08/14 07:22:17;;;;;;;16.15;7.07;;;17.70;99.90;;;;;;5044325;28;20531;-66
2023/08/14 07:24:43;;;;;;;17.15;7.40;;;17.80;99.90;;;;;;5027931;28;20404;-66
2023/08/14 07:27:09;;;;;;;15.55;7.20;;;17.80;99.90;;;;;;5044388;28;20586;-66
2023/08/14 07:29:35;;;;;;;12.23;6.88;;;18.00;99.90;;;;;;5044018;28;20056;-65
2023/08/14 07:32:00;;;;;;;15.88;6.70;;;18.10;99.90;;;;;;5046765;28;20052;-66
2023/08/14 07:34:26;;;;;;;12.73;6.55;;;18.20;99.90;;;;;;5045550;28;20056;-66
2023/08/14 07:36:52;;;;;;;11.32;6.47;;;18.30;99.90;;;;;;5043968;28;20029;-65
2023/08/14 07:39:17;;;;;;;12.93;5.95;;;18.50;99.90;;;;;;5027684;28;20052;-68
2023/08/14 07:41:43;;;;;;;9.38;5.07;;;18.70;99.90;;;;;;5027396;28;20480;-66
2023/08/14 07:44:08;;;;;;;12.05;5.95;;;18.90;99.90;;;;;;5027475;28;20625;-65
2023/08/14 07:46:34;;;;;;;13.32;6.18;;;19.00;99.90;;;;;;5056821;28;20531;-67
2023/08/14 07:49:00;;;;;;;10.02;5.55;;;19.20;99.90;;;;;;5063747;28;20133;-64
2023/08/14 07:51:25;;;;;;;16.08;5.28;;;19.30;99.90;;;;;;5045106;28;20044;-64
2023/08/14 07:53:52;;;;;;;11.18;5.65;;;19.40;99.90;;;;;;5030445;28;20075;-65
2023/08/14 07:56:18;;;;;;;10.20;5.10;;;19.40;99.90;;;;;;5063400;28;20040;-69
2023/08/14 07:58:43;;;;;;;10.82;4.53;;;19.40;99.90;;;;;;5063710;28;20044;-63
2023/08/14 08:01:09;;;;;;;9.18;4.45;;;19.40;99.90;;;;;;5052050;28;20060;-64
2023/08/14 08:03:35;;;;;;;9.30;4.38;;;19.40;99.90;;;;;;5027854;28;20059;-66
2023/08/14 08:06:01;;;;;;;11.73;4.32;;;19.40;99.90;;;;;;5043367;28;20337;-65
2023/08/14 08:08:26;;;;;;;11.13;4.28;;;19.40;99.90;;;;;;5027130;28;20051;-69
2023/08/14 08:10:52;;;;;;;8.63;4.13;;;19.40;99.90;;;;;;5045083;28;20075;-64
2023/08/14 08:13:17;;;;;;;9.68;4.10;;;19.40;99.90;;;;;;5060085;28;20536;-67
2023/08/14 08:15:43;;;;;;;8.32;4.55;;;19.50;99.90;;;;;;5059124;28;20119;-64
2023/08/14 08:18:09;;;;;;;9.50;3.65;;;19.60;99.90;;;;;;5063663;28;20086;-66
2023/08/14 08:20:34;;;;;;;9.55;3.47;;;19.60;99.90;;;;;;5062008;28;20467;-67
2023/08/14 08:23:00;;;;;;;9.02;3.30;;;19.70;99.90;;;;;;5055351;28;20132;-67
2023/08/14 08:25:25;;;;;;;9.60;3.50;;;19.70;99.90;;;;;;5043612;28;20049;-67
2023/08/14 08:27:51;;;;;;;12.00;3.63;;;19.70;99.90;;;;;;5043625;28;20045;-68
2023/08/14 08:30:16;;;;;;;11.23;4.05;;;19.80;99.90;;;;;;5032256;28;20294;-66
2023/08/14 08:32:42;;;;;;;9.00;3.95;;;19.80;99.90;;;;;;5058064;28;20041;-68
2023/08/14 08:35:09;;;;;;;8.70;3.20;;;19.90;99.90;;;;;;5043396;28;20099;-67
2023/08/14 08:37:34;;;;;;;7.15;3.05;;;20.00;99.90;;;;;;5043429;28;20063;-67
2023/08/14 08:40:00;;;;;;;10.32;3.25;;;20.20;99.90;;;;;;5043358;28;20049;-69
2023/08/14 08:42:27;;;;;;;9.30;3.60;;;20.30;99.90;;;;;;5026532;28;20072;-69
2023/08/14 08:44:55;;;;;;;9.77;3.40;;;20.40;99.90;;;;;;5043243;28;20107;-66
2023/08/14 08:47:27;;;;;;;7.85;3.65;;;20.50;99.90;;;;;;5060833;28;20052;-66
2023/08/14 08:49:52;;;;;;;6.50;2.70;;;20.60;99.90;;;;;;5043528;28;20042;-67
2023/08/14 08:52:19;;;;;;;10.07;3.30;;;20.80;99.90;;;;;;5026303;28;20041;-64
2023/08/14 08:54:45;;;;;;;10.60;2.67;;;20.80;99.90;;;;;;5030677;28;20041;-66
2023/08/14 08:57:11;;;;;;;8.23;2.40;;;21.10;99.90;;;;;;5063013;28;20046;-65
2023/08/14 08:59:39;;;;;;;8.50;2.45;;;21.40;99.90;;;;;;5061837;28;20474;-65
2023/08/14 09:02:06;;;;;;;8.82;2.50;;;21.50;99.90;;;;;;5045420;28;20068;-64
2023/08/14 09:04:31;;;;;;;7.47;2.65;;;21.50;99.90;;;;;;5043010;28;20056;-66
2023/08/14 09:06:57;;;;;;;7.72;2.58;;;21.50;99.90;;;;;;5026438;28;20049;-67
2023/08/14 09:09:23;;;;;;;6.63;2.70;;;21.40;99.90;;;;;;5029026;28;20051;-68
2023/08/14 09:11:48;;;;;;;11.27;2.75;;;21.30;99.90;;;;;;5060562;28;20376;-65
2023/08/14 09:14:15;;;;;;;8.07;2.40;;;21.20;99.90;;;;;;5067063;28;20538;-64
2023/08/14 09:16:41;;;;;;;7.20;2.70;;;21.10;99.90;;;;;;5046409;28;20044;-66
2023/08/14 09:19:06;;;;;;;7.22;2.47;;;21.00;99.90;;;;;;5068312;28;20056;-65
2023/08/14 09:21:33;;;;;;;10.10;2.60;;;21.00;99.90;;;;;;5042124;28;20151;-65
2023/08/14 09:23:59;;;;;;;8.57;2.65;;;21.10;99.90;;;;;;5046794;28;20059;-64
2023/08/14 09:26:25;;;;;;;10.27;2.92;;;21.20;99.90;;;;;;5048019;28;20090;-67
2023/08/14 09:28:52;;;;;;;8.55;2.90;;;21.40;99.90;;;;;;5063285;28;20333;-68
2023/08/14 09:31:17;;;;;;;8.40;2.70;;;21.40;99.90;;;;;;5048418;28;20052;-66
2023/08/14 09:33:44;;;;;;;9.52;1.90;;;21.50;99.90;;;;;;5060096;28;20038;-66
2023/08/14 09:36:11;;;;;;;6.30;1.80;;;21.60;99.90;;;;;;5027993;28;20112;-66
2023/08/14 09:38:37;;;;;;;5.15;1.70;;;21.80;99.90;;;;;;5076968;28;20040;-66
2023/08/14 09:41:03;;;;;;;8.32;1.95;;;21.80;99.90;;;;;;5049521;28;20342;-66
2023/08/14 09:43:31;;;;;;;7.45;2.13;;;21.80;99.90;;;;;;5055091;28;20041;-68
2023/08/14 09:45:59;;;;;;;7.55;1.90;;;21.90;99.90;;;;;;5047072;28;20526;-66
2023/08/14 09:48:47;;;;;;;8.18;2.00;;;22.00;99.90;;;;;;5046451;28;20072;-69
2023/08/14 09:51:16;;;;;;;6.97;2.00;;;22.10;99.90;;;;;;5029480;28;20419;-64
2023/08/14 09:53:49;;;;;;;6.32;2.03;;;22.10;99.90;;;;;;5046281;28;20159;-68
2023/08/14 09:56:16;;;;;;;5.20;1.88;;;22.20;99.90;;;;;;5063363;28;20045;-69
2023/08/14 09:58:42;;;;;;;9.93;2.10;;;22.20;99.90;;;;;;5066061;28;20158;-66
2023/08/14 10:01:08;;;;;;;9.32;2.17;;;22.10;99.90;;;;;;5056248;28;20725;-68
2023/08/14 10:03:35;;;;;;;7.85;2.30;;;22.20;99.90;;;;;;5029514;28;20052;-68
2023/08/14 10:06:04;;;;;;;7.47;2.00;;;22.20;99.90;;;;;;5029133;28;20041;-67
2023/08/14 10:08:34;;;;;;;7.18;1.80;;;22.20;99.90;;;;;;5029156;28;20072;-66
2023/08/14 10:11:03;;;;;;;8.73;1.83;;;22.10;99.90;;;;;;5037966;28;20076;-69
2023/08/14 10:13:29;;;;;;;12.95;2.85;;;22.20;99.90;;;;;;5049137;28;20051;-65
2023/08/14 10:15:58;;;;;;;10.18;2.38;;;22.20;99.90;;;;;;5062662;28;20036;-65
2023/08/14 10:18:26;;;;;;;7.20;2.20;;;22.20;99.90;;;;;;5065783;28;20047;-68
2023/08/14 10:20:55;;;;;;;6.28;2.03;;;22.10;99.90;;;;;;5046662;28;20523;-67
2023/08/14 10:23:22;;;;;;;8.30;2.15;;;22.20;99.90;;;;;;5066027;28;20182;-64
2023/08/14 10:25:50;;;;;;;7.72;2.20;;;22.30;99.90;;;;;;5048859;28;20044;-69
2023/08/14 10:28:18;;;;;;;9.40;2.10;;;22.30;99.90;;;;;;5065439;28;20055;-69
2023/08/14 10:30:45;;;;;;;9.18;2.40;;;22.30;99.90;;;;;;5058730;28;20143;-68
2023/08/14 10:33:12;;;;;;;7.15;2.40;;;22.20;99.90;;;;;;5027546;28;20045;-69
2023/08/14 10:35:51;;;;;;;6.57;2.20;;;22.20;99.90;;;;;;5042275;28;20091;-69
2023/08/14 10:38:18;;;;;;;9.23;2.15;;;22.30;99.90;;;;;;5034368;28;20059;-67
2023/08/14 10:40:55;;;;;;;9.13;2.30;;;22.40;99.90;;;;;;5048562;28;20051;-66
2023/08/14 10:43:28;;;;;;;5.03;1.58;;;22.40;99.90;;;;;;5048467;28;20072;-66
2023/08/14 10:45:54;;;;;;;7.20;2.05;;;22.50;99.90;;;;;;5052911;28;20059;-66
2023/08/14 10:48:20;;;;;;;9.63;2.45;;;22.60;99.90;;;;;;5065065;28;20411;-67
2023/08/14 10:51:00;;;;;;;5.20;1.80;;;22.70;99.90;;;;;;5065045;28;20071;-66
2023/08/14 10:53:26;;;;;;;7.55;2.33;;;22.90;99.90;;;;;;5042802;28;20143;-67
2023/08/14 10:55:52;;;;;;;12.52;2.08;;;22.90;99.90;;;;;;5046344;28;20123;-67
2023/08/14 10:58:32;;;;;;;6.95;1.90;;;23.00;99.90;;;;;;5046468;28;20428;-68
2023/08/14 11:00:59;;;;;;;8.40;2.28;;;23.00;99.90;;;;;;5045483;28;20064;-67
2023/08/14 11:03:25;;;;;;;8.18;2.17;;;23.00;99.90;;;;;;5045144;28;20048;-68
2023/08/14 11:05:50;;;;;;;4.78;1.77;;;23.10;99.90;;;;;;5077899;28;20040;-68
2023/08/14 11:08:16;;;;;;;5.15;1.58;;;23.10;99.90;;;;;;5047912;28;20036;-67
2023/08/14 11:10:43;;;;;;;9.02;2.30;;;23.10;99.90;;;;;;5065774;28;20094;-67
2023/08/14 11:13:09;;;;;;;6.25;2.05;;;23.20;99.90;;;;;;5064637;28;20036;-66
2023/08/14 11:15:37;;;;;;;6.22;1.98;;;23.10;99.90;;;;;;5058557;28;20045;-66
2023/08/14 11:18:10;;;;;;;8.20;1.98;;;23.10;99.90;;;;;;5064510;28;20389;-67
2023/08/14 11:20:42;;;;;;;9.37;2.03;;;23.00;99.90;;;;;;5064582;28;20045;-69
2023/08/14 11:23:08;;;;;;;6.60;1.88;;;22.90;99.90;;;;;;5057248;28;20056;-69
2023/08/14 11:25:35;;;;;;;8.00;2.17;;;22.90;99.90;;;;;;5045593;28;20094;-67
2023/08/14 11:28:01;;;;;;;9.13;2.75;;;23.00;99.90;;;;;;5027904;28;20045;-67
2023/08/14 11:30:34;;;;;;;8.40;1.92;;;23.10;99.90;;;;;;5044836;28;20051;-67
2023/08/14 11:33:04;;;;;;;11.75;2.40;;;23.20;99.90;;;;;;5025123;28;20037;-66
2023/08/14 11:35:29;;;;;;;6.82;2.05;;;23.20;99.90;;;;;;5008015;28;20142;-65
2023/08/14 11:37:55;;;;;;;8.88;2.20;;;23.30;99.90;;;;;;5047714;28;20324;-66
2023/08/14 11:40:21;;;;;;;11.38;2.53;;;23.20;99.90;;;;;;5047470;28;20055;-66
2023/08/14 11:42:47;;;;;;;8.45;2.05;;;23.30;99.90;;;;;;5064086;28;20037;-68
2023/08/14 11:45:12;;;;;;;6.20;1.75;;;23.40;99.90;;;;;;5044607;28;20040;-66
2023/08/14 11:47:49;;;;;;;7.28;2.10;;;23.70;99.90;;;;;;5062637;28;20224;-68
2023/08/14 11:50:16;;;;;;;8.25;2.30;;;23.90;99.90;;;;;;5038352;28;20091;-66
2023/08/14 11:52:42;;;;;;;6.07;1.83;;;24.00;99.90;;;;;;5043916;28;20102;-69
2023/08/14 11:55:09;;;;;;;6.68;1.90;;;24.00;99.90;;;;;;5045256;28;20045;-66
2023/08/14 11:57:36;;;;;;;5.30;1.80;;;24.00;99.90;;;;;;5044412;28;20040;-69
2023/08/14 12:00:10;;;;;;;7.47;2.05;;;23.80;99.90;;;;;;5042224;28;20037;-68
2023/08/14 12:02:38;;;;;;;7.43;2.35;;;23.70;99.90;;;;;;5044688;28;20095;-67
2023/08/14 12:05:04;;;;;;;7.38;1.90;;;23.60;99.90;;;;;;5064987;28;20048;-67
2023/08/14 12:07:30;;;;;;;7.05;1.92;;;23.50;99.90;;;;;;5064872;28;20044;-68
2023/08/14 12:09:56;;;;;;;11.05;1.80;;;23.40;99.90;;;;;;5060068;28;20090;-67
2023/08/14 12:12:24;;;;;;;7.53;1.90;;;23.30;99.90;;;;;;5043886;28;20512;-67
2023/08/14 12:14:51;;;;;;;7.63;1.85;;;23.20;99.90;;;;;;5043919;28;20552;-66
2023/08/14 12:17:18;;;;;;;8.80;2.15;;;23.20;99.90;;;;;;5027206;28;20045;-67
2023/08/14 12:19:57;;;;;;;7.90;2.05;;;23.20;99.90;;;;;;5045040;28;20052;-68
2023/08/14 12:22:24;;;;;;;7.70;2.13;;;23.30;99.90;;;;;;5043411;28;20051;-69
2023/08/14 12:24:51;;;;;;;9.07;1.90;;;23.40;99.90;;;;;;5043549;28;20135;-68
2023/08/14 12:27:29;;;;;;;6.18;1.80;;;23.60;99.90;;;;;;5043295;28;20045;-68
2023/08/14 12:29:56;;;;;;;8.10;2.00;;;23.80;99.90;;;;;;5043827;28;20552;-68
2023/08/14 12:32:23;;;;;;;8.90;1.70;;;23.90;99.90;;;;;;5043501;28;20040;-71
2023/08/14 12:34:49;;;;;;;7.28;1.88;;;23.90;99.90;;;;;;5043545;28;20045;-69
2023/08/14 12:37:15;;;;;;;7.65;1.90;;;23.80;99.90;;;;;;5027084;28;20322;-70
2023/08/14 12:39:50;;;;;;;9.82;2.10;;;23.70;99.90;;;;;;5026342;28;20060;-70
2023/08/14 12:42:16;;;;;;;6.32;1.98;;;23.70;99.90;;;;;;5077216;28;20056;-71